createdAt,value
2023-04-27T00:03:59.053Z,8.30
2023-04-27T00:09:01.111Z,7.70
2023-04-27T00:14:04.474Z,8.20
2023-04-27T00:19:06.935Z,8.20
2023-04-27T00:24:09.125Z,8.20
2023-04-27T00:29:11.137Z,7.80
2023-04-27T00:34:14.919Z,7.30
2023-04-27T00:39:17.187Z,6.70
2023-04-27T00:44:24.082Z,6.20
2023-04-27T00:49:27.037Z,7.00
2023-04-27T00:54:29.890Z,6.60
2023-04-27T00:59:33.084Z,6.50
2023-04-27T01:04:37.262Z,6.80
2023-04-27T01:09:39.413Z,8.00
2023-04-27T01:14:41.683Z,7.50
2023-04-27T01:19:45.040Z,7.40
2023-04-27T01:24:47.168Z,6.90
2023-04-27T01:29:49.022Z,7.60
2023-04-27T01:34:51.732Z,7.80
2023-04-27T01:39:53.657Z,7.60
2023-04-27T01:44:55.696Z,6.90
2023-04-27T01:49:57.512Z,7.50
2023-04-27T01:54:59.532Z,6.90
2023-04-27T02:00:02.164Z,7.70
2023-04-27T02:05:24.097Z,7.80
2023-04-27T02:10:27.893Z,7.40
2023-04-27T02:15:32.618Z,7.10
2023-04-27T02:20:35.167Z,7.60
2023-04-27T02:25:38.436Z,7.30
2023-04-27T02:30:40.733Z,6.90
2023-04-27T02:35:42.726Z,6.90
2023-04-27T02:40:44.743Z,7.30
2023-04-27T02:45:46.742Z,7.00
2023-04-27T02:50:48.597Z,6.90
2023-04-27T02:55:51.196Z,6.80
2023-04-27T03:00:57.007Z,6.70
2023-04-27T03:06:00.044Z,7.60
2023-04-27T03:11:02.073Z,7.10
2023-04-27T03:16:04.255Z,8.70
2023-04-27T03:21:10.918Z,8.60
2023-04-27T03:26:14.944Z,8.20
2023-04-27T03:31:17.109Z,8.20
2023-04-27T03:36:19.650Z,9.20
2023-04-27T03:41:21.707Z,8.30
2023-04-27T03:46:23.676Z,9.10
2023-04-27T03:51:25.800Z,8.90
2023-04-27T03:56:27.708Z,8.70
2023-04-27T04:01:31.003Z,8.80
2023-04-27T04:06:33.779Z,8.40
2023-04-27T04:11:35.742Z,8.30
2023-04-27T04:16:40.239Z,8.40
2023-04-27T04:21:42.278Z,7.50
2023-04-27T04:26:44.376Z,8.20
2023-04-27T04:31:46.640Z,7.90
2023-04-27T04:36:52.097Z,8.20
2023-04-27T04:41:54.936Z,8.00
2023-04-27T04:47:00.050Z,8.10
2023-04-27T04:52:02.202Z,8.50
2023-04-27T04:57:05.819Z,7.80
2023-04-27T05:02:07.835Z,8.60
2023-04-27T05:07:14.082Z,9.40
2023-04-27T05:12:16.840Z,8.10
2023-04-27T05:17:19.552Z,8.40
2023-04-27T05:22:21.369Z,9.10
2023-04-27T05:27:23.554Z,10.20
2023-04-27T05:32:25.830Z,8.60
2023-04-27T05:37:28.327Z,9.60
2023-04-27T05:42:30.227Z,7.40
2023-04-27T05:47:32.529Z,8.40
2023-04-27T05:52:36.976Z,7.40
2023-04-27T05:57:41.476Z,9.00
2023-04-27T06:02:43.591Z,9.20
2023-04-27T06:07:45.848Z,9.50
2023-04-27T06:12:47.817Z,8.40
2023-04-27T06:17:49.956Z,8.00
2023-04-27T06:22:51.824Z,8.20
2023-04-27T06:27:57.770Z,6.80
2023-04-27T06:32:59.632Z,6.70
2023-04-27T06:38:02.138Z,7.70
2023-04-27T06:43:04.920Z,8.00
2023-04-27T06:48:07.391Z,6.40
2023-04-27T06:53:10.358Z,6.90
2023-04-27T06:58:12.630Z,6.60
2023-04-27T07:03:15.267Z,6.80
2023-04-27T07:08:17.794Z,5.70
2023-04-27T07:13:19.771Z,5.60
2023-04-27T07:18:21.794Z,5.60
2023-04-27T07:23:24.201Z,5.10
2023-04-27T07:28:30.335Z,4.50
2023-04-27T07:33:35.584Z,3.90
2023-04-27T07:38:38.483Z,4.10
2023-04-27T07:43:40.417Z,4.10
2023-04-27T07:48:42.331Z,4.10
2023-04-27T07:53:46.038Z,4.20
2023-04-27T07:58:49.865Z,3.60
2023-04-27T08:03:51.976Z,4.00
2023-04-27T08:08:58.249Z,4.30
2023-04-27T08:14:00.263Z,3.80
2023-04-27T08:19:02.416Z,3.70
2023-04-27T08:24:06.358Z,4.10
2023-04-27T08:29:19.293Z,3.50
2023-04-27T08:34:26.339Z,3.80
2023-04-27T08:39:29.102Z,3.80
2023-04-27T08:44:31.112Z,3.00
2023-04-27T08:49:33.289Z,3.20
2023-04-27T08:54:35.808Z,3.50
2023-04-27T08:59:38.597Z,3.50
2023-04-27T09:04:40.895Z,3.40
2023-04-27T09:09:44.491Z,3.60
2023-04-27T09:15:08.648Z,3.20
2023-04-27T09:20:13.645Z,3.30
2023-04-27T09:25:30.387Z,3.00
2023-04-27T09:30:32.605Z,3.30
2023-04-27T09:35:34.396Z,3.50
2023-04-27T09:40:37.000Z,3.40
2023-04-27T09:45:39.184Z,3.80
2023-04-27T09:50:43.713Z,3.20
2023-04-27T09:56:08.399Z,3.50
2023-04-27T10:01:18.738Z,3.40
2023-04-27T10:06:39.133Z,3.30
2023-04-27T10:11:44.319Z,3.30
2023-04-27T10:16:47.814Z,3.40
2023-04-27T10:21:59.103Z,4.60
2023-04-27T10:27:09.655Z,3.80
2023-04-27T10:32:14.363Z,4.00
2023-04-27T10:37:16.716Z,3.50
2023-04-27T10:42:29.247Z,3.80
2023-04-27T10:47:40.117Z,3.90
2023-04-27T10:52:43.671Z,3.50
2023-04-27T10:57:50.270Z,3.60
2023-04-27T11:02:54.312Z,3.70
2023-04-27T11:08:09.680Z,4.00
2023-04-27T11:13:20.240Z,3.70
2023-04-27T11:18:24.840Z,4.00
2023-04-27T11:23:29.069Z,4.20
2023-04-27T11:28:31.847Z,3.50
2023-04-27T11:33:35.836Z,3.50
2023-04-27T11:38:38.067Z,3.10
2023-04-27T11:43:49.768Z,4.00
2023-04-27T11:48:51.911Z,3.80
2023-04-27T11:53:53.956Z,3.90
2023-04-27T11:58:55.764Z,4.40
2023-04-27T12:04:00.747Z,4.30
2023-04-27T12:09:05.352Z,4.40
2023-04-27T12:14:08.170Z,4.10
2023-04-27T12:19:10.267Z,4.30
2023-04-27T12:24:13.137Z,4.20
2023-04-27T12:29:16.000Z,3.20
2023-04-27T12:34:18.327Z,3.50
2023-04-27T12:39:21.758Z,3.40
2023-04-27T12:44:24.921Z,3.80
2023-04-27T12:49:27.161Z,3.80
2023-04-27T12:54:29.337Z,4.00
2023-04-27T12:59:31.127Z,3.60
2023-04-27T13:04:33.410Z,3.90
2023-04-27T13:09:36.224Z,3.40
2023-04-27T13:14:38.704Z,4.00
2023-04-27T13:19:40.693Z,3.90
2023-04-27T13:24:43.118Z,4.00
2023-04-27T13:29:45.086Z,3.70
2023-04-27T13:34:47.295Z,4.00
2023-04-27T13:39:49.186Z,3.60
2023-04-27T13:44:51.620Z,3.50
2023-04-27T13:49:53.514Z,2.90
2023-04-27T13:54:55.598Z,3.10
2023-04-27T13:59:57.299Z,2.60
2023-04-27T14:04:59.451Z,2.70
2023-04-27T14:10:06.358Z,3.30
2023-04-27T14:15:09.239Z,3.50
2023-04-27T14:20:11.394Z,3.40
2023-04-27T14:25:13.314Z,3.40
2023-04-27T14:30:15.714Z,2.60
2023-04-27T14:35:18.307Z,3.20
2023-04-27T14:40:20.366Z,3.10
2023-04-27T14:45:24.227Z,3.40
2023-04-27T14:50:28.240Z,4.00
2023-04-27T14:55:30.365Z,4.50
2023-04-27T15:00:32.328Z,4.10
2023-04-27T15:05:34.363Z,3.50
2023-04-27T15:10:39.002Z,4.00
2023-04-27T15:15:41.251Z,7.60
2023-04-27T15:20:44.621Z,4.20
2023-04-27T15:25:48.980Z,3.80
2023-04-27T15:30:51.392Z,4.30
2023-04-27T15:35:53.614Z,3.30
2023-04-27T15:40:55.392Z,3.90
2023-04-27T15:45:57.384Z,3.70
2023-04-27T15:50:59.300Z,3.60
2023-04-27T15:56:01.308Z,3.70
2023-04-27T16:01:03.205Z,4.10
2023-04-27T16:06:06.637Z,3.70
2023-04-27T16:11:08.453Z,3.90
2023-04-27T16:16:10.578Z,3.80
2023-04-27T16:21:12.567Z,4.70
2023-04-27T16:26:14.874Z,4.30
2023-04-27T16:31:17.084Z,3.80
2023-04-27T16:36:19.251Z,4.10
2023-04-27T16:41:22.133Z,4.00
2023-04-27T16:46:24.666Z,4.00
2023-04-27T16:51:26.850Z,3.60
2023-04-27T16:56:31.133Z,3.90
2023-04-27T17:01:33.256Z,3.70
2023-04-27T17:06:35.206Z,3.50
2023-04-27T17:11:37.532Z,3.80
2023-04-27T17:16:39.898Z,3.90
2023-04-27T17:21:41.889Z,3.90
2023-04-27T17:26:43.812Z,4.10
2023-04-27T17:31:46.265Z,4.40
2023-04-27T17:36:48.442Z,4.30
2023-04-27T17:41:50.910Z,3.90
2023-04-27T17:46:54.093Z,3.90
2023-04-27T17:51:56.514Z,3.80
2023-04-27T17:56:58.771Z,3.90
2023-04-27T18:02:00.657Z,4.40
2023-04-27T18:07:02.788Z,4.20
2023-04-27T18:12:11.023Z,4.70
2023-04-27T18:17:13.939Z,5.30
2023-04-27T18:22:16.271Z,15.90
2023-04-27T18:27:18.713Z,6.00
2023-04-27T18:32:21.976Z,6.50
2023-04-27T18:37:24.603Z,7.20
2023-04-27T18:42:26.651Z,6.00
2023-04-27T18:47:28.977Z,7.10
2023-04-27T18:52:31.143Z,7.90
2023-04-27T18:57:33.682Z,12.80
2023-04-27T19:02:35.906Z,9.90
2023-04-27T19:07:38.044Z,13.10
2023-04-27T19:12:40.648Z,19.60
2023-04-27T19:17:42.895Z,18.60
2023-04-27T19:22:45.201Z,42.30
2023-04-27T19:27:48.272Z,24.40
2023-04-27T19:32:51.322Z,24.20
2023-04-27T19:37:53.375Z,26.10
2023-04-27T19:42:55.419Z,23.90
2023-04-27T19:47:57.979Z,26.90
2023-04-27T19:53:00.187Z,26.60
2023-04-27T19:58:03.004Z,24.20
2023-04-27T20:03:06.749Z,24.10
2023-04-27T20:08:09.081Z,22.50
2023-04-27T20:13:10.881Z,22.30
2023-04-27T20:18:13.091Z,20.70
2023-04-27T20:23:15.514Z,21.20
2023-04-27T20:28:17.852Z,19.90
2023-04-27T20:33:19.850Z,22.80
2023-04-27T20:38:22.109Z,22.60
2023-04-27T20:43:24.551Z,24.70
2023-04-27T20:48:28.989Z,22.00
2023-04-27T20:53:31.156Z,21.80
2023-04-27T20:58:33.179Z,20.20
2023-04-27T21:03:35.946Z,22.50
2023-04-27T21:08:42.994Z,23.10
2023-04-27T21:13:48.266Z,23.20
2023-04-27T21:18:50.313Z,23.90
2023-04-27T21:24:00.804Z,27.50
2023-04-27T21:29:09.153Z,32.30
2023-04-27T21:34:11.009Z,35.30
2023-04-27T21:39:15.491Z,30.00
2023-04-27T21:44:18.158Z,26.40
2023-04-27T21:49:22.294Z,28.70
2023-04-27T21:54:24.284Z,27.50
2023-04-27T21:59:26.581Z,27.70
2023-04-27T22:04:28.870Z,30.20
2023-04-27T22:09:31.459Z,33.70
2023-04-27T22:14:33.533Z,32.60
2023-04-27T22:19:36.681Z,32.50
2023-04-27T22:24:38.610Z,30.20
2023-04-27T22:29:40.928Z,31.20
2023-04-27T22:34:43.197Z,30.60
2023-04-27T22:39:46.168Z,32.60
2023-04-27T22:44:48.140Z,32.90
2023-04-27T22:49:50.276Z,31.80
2023-04-27T22:54:52.193Z,31.10
2023-04-27T22:59:54.418Z,32.30
2023-04-27T23:04:56.284Z,29.70
2023-04-27T23:10:03.121Z,29.80
2023-04-27T23:15:08.159Z,28.90
2023-04-27T23:20:26.732Z,29.00
2023-04-27T23:30:34.358Z,42.00
2023-04-27T23:35:36.282Z,48.70
2023-04-27T23:40:39.098Z,47.80
2023-04-27T23:45:52.240Z,43.60
2023-04-27T23:51:04.295Z,44.80
2023-04-27T23:56:06.452Z,39.70
